Date,TemperatureHighF,TemperatureAvgF,TemperatureLowF,DewpointHighF,DewpointAvgF,DewpointLowF,HumidityHigh,HumidityAvg,HumidityLow,PressureMaxIn,PressureMinIn,WindSpeedMaxMPH,WindSpeedAvgMPH,GustSpeedMaxMPH,PrecipitationSumIn
2013-1-1,40,37,32,38,36,32,100,96,88,0.00,40.00,2,-86,8,0.00
2013-1-2,43,37,29,37,34,29,100,90,73,0.00,40.00,3,1,8,0.00
2013-1-3,41,34,28,35,32,28,100,93,75,0.00,40.00,2,0,6,0.00
2013-1-4,42,42,40,42,41,40,100,99,96,0.00,40.00,1,1,6,0.00
2013-1-5,43,41,35,43,40,35,100,98,92,0.00,40.00,2,1,6,0.00
2013-1-6,43,41,40,41,40,38,100,95,88,0.00,40.00,2,1,7,0.00
2013-1-7,49,45,41,46,43,39,100,93,82,0.00,40.00,5,2,12,0.00
2013-1-8,51,42,32,48,30,-100,100,88,89,0.00,40.00,6,2,20,0.00
2013-1-9,44,39,36,42,38,35,100,96,92,0.00,40.00,5,2,12,0.00
2013-1-10,42,33,29,40,33,29,100,98,85,0.00,40.00,1,0,3,0.00
2013-1-11,39,28,24,35,27,23,100,97,52,0.00,40.00,2,-125,6,0.00
2013-1-12,38,27,22,29,26,21,100,95,69,0.00,40.00,2,0,6,0.00
2013-1-13,34,29,20,34,28,20,100,100,96,0.00,40.00,0,0,1,0.00
2013-1-14,35,33,31,35,33,31,100,100,100,0.00,40.00,0,0,2,0.00
2013-1-15,44,35,30,39,34,30,100,96,76,0.00,40.00,2,0,7,0.00
2013-1-16,39,28,27,36,16,-100,100,87,88,0.00,40.00,0,0,3,0.00
2013-1-17,40,35,30,36,34,30,100,95,85,0.00,40.00,2,1,6,0.00
2013-1-18,39,34,29,38,34,29,100,98,96,0.00,40.00,1,0,3,0.00
2013-1-19,41,36,28,37,34,28,100,93,85,0.00,40.00,2,2,7,0.00
2013-1-20,43,30,25,39,30,25,100,97,85,0.00,40.00,0,0,2,0.00
2013-1-21,44,31,23,38,30,23,100,95,79,0.00,40.00,2,0,5,0.00
2013-1-22,39,33,28,37,32,28,100,99,92,0.00,40.00,1,0,159,0.00
2013-1-23,42,38,33,41,38,33,100,99,96,0.00,40.00,2,1,6,0.00
2013-1-24,38,34,30,38,34,30,100,100,96,0.00,40.00,1,0,3,0.00
2013-1-25,47,40,33,45,39,33,100,96,82,0.00,40.00,2,1,6,0.00
2013-1-26,44,40,35,40,38,35,100,93,85,0.00,40.00,2,1,7,0.00
2013-1-27,40,39,38,38,37,37,96,93,88,0.00,40.00,6,2,13,0.00
2013-1-28,43,41,39,41,39,37,96,93,88,0.00,40.00,3,1,12,0.00
2013-1-29,46,44,42,44,43,42,100,97,92,0.00,40.00,2,1,10,0.00
2013-1-31,49,46,43,47,45,42,100,93,89,0.00,40.00,3,2,8,0.00
2013-2-1,45,43,41,42,41,39,100,92,82,0.00,40.00,2,0,5,0.00
2013-2-2,51,43,38,41,39,37,100,86,65,0.00,40.00,2,1,9,0.00
2013-2-3,45,41,32,43,39,32,100,96,85,0.00,40.00,6,1,14,0.00
2013-2-4,47,45,42,42,41,39,100,86,79,0.00,40.00,2,1,7,0.00
2013-2-5,47,44,40,43,41,39,96,89,82,0.00,40.00,9,4,27,0.00
2013-2-6,44,42,41,42,40,39,100,95,85,0.00,40.00,3,1,9,0.00
2013-2-7,43,38,30,39,36,30,100,92,82,0.00,40.00,7,2,17,0.00
2013-2-8,44,33,26,40,32,26,100,95,82,0.00,40.00,3,0,5,0.00
2013-2-9,44,40,34,43,40,34,100,98,96,0.00,40.00,1,0,3,0.00
2013-2-10,44,39,31,42,38,31,100,97,92,0.00,40.00,1,0,3,0.00
2013-2-11,50,44,40,44,42,39,100,91,79,0.00,40.00,5,1,10,0.00
2013-2-12,48,45,40,45,42,40,100,92,85,0.00,40.00,5,2,13,0.00
2013-2-13,46,43,39,41,40,38,96,90,79,0.00,40.00,3,1,7,0.00
2013-2-14,44,42,38,44,42,38,100,98,96,0.00,40.00,1,0,3,0.00
2013-2-15,45,44,41,44,43,41,100,96,92,0.00,40.00,1,1,5,0.00
2013-2-16,44,42,40,43,41,39,100,96,92,0.00,40.00,2,1,9,0.00
2013-2-17,47,40,34,39,37,33,100,88,68,0.00,40.00,5,1,9,0.00
2013-2-18,41,37,32,40,36,32,100,99,92,0.00,40.00,0,0,3,0.00
2013-2-19,44,36,30,41,36,30,100,97,79,0.00,40.00,1,0,3,0.00
2013-2-20,42,36,28,40,35,28,100,97,89,0.00,40.00,5,1,12,0.00
2013-2-21,42,39,37,39,38,36,100,93,85,0.00,40.00,5,2,14,0.00
2013-2-22,46,40,35,42,38,35,100,90,82,0.00,40.00,10,4,25,0.00
2013-2-23,46,41,37,38,36,35,100,84,67,0.00,40.00,3,2,10,0.00
2013-2-24,48,44,32,40,38,32,100,80,73,0.00,40.00,12,5,28,0.00
2013-2-25,45,40,32,39,36,32,100,86,65,0.00,40.00,7,3,21,0.00
2013-2-26,44,39,32,39,36,32,100,91,70,0.00,40.00,5,1,13,0.00
2013-2-27,45,40,34,40,38,34,100,93,79,0.00,40.00,5,1,13,0.00
2013-2-28,50,43,38,47,42,38,100,97,86,0.00,40.00,3,1,15,0.00
2013-3-1,52,50,49,47,47,47,92,89,82,0.00,40.00,6,5,24,0.00
2013-3-2,49,45,37,47,43,36,96,93,89,0.00,40.00,3,2,18,0.00
2013-3-3,47,37,29,38,34,29,100,89,62,0.00,40.00,6,1,10,0.00
2013-3-4,43,33,27,37,31,27,100,94,62,0.00,40.00,5,-94,12,0.00
2013-3-5,43,36,30,41,28,-100,100,89,88,0.00,40.00,1,0,3,0.00
2013-3-6,43,41,39,42,40,39,100,96,89,0.00,40.00,5,0,12,0.00
2013-3-7,46,41,38,41,39,38,100,94,79,0.00,40.00,3,0,12,0.00
2013-3-8,50,37,31,41,35,31,100,94,60,0.00,40.00,2,0,6,0.00
2013-3-9,51,39,29,40,35,28,100,86,60,0.00,40.00,5,1,9,0.00
2013-3-10,45,43,42,44,42,41,100,96,92,0.00,40.00,1,0,3,0.00
2013-3-11,45,42,32,43,41,32,100,95,85,0.00,40.00,2,1,7,0.00
2013-3-12,51,50,49,48,47,46,92,89,82,0.00,40.00,6,4,24,0.00
2013-3-13,52,51,49,49,47,47,96,88,82,0.00,40.00,12,5,23,0.00
2013-3-14,52,50,47,46,45,43,92,85,74,0.00,40.00,8,3,18,0.00
2013-3-15,54,45,32,47,43,32,100,92,77,0.00,40.00,3,1,12,0.00
2013-3-16,45,43,38,44,41,37,100,93,85,0.00,40.00,3,1,7,0.00
2013-3-17,43,39,37,38,36,35,100,91,79,0.00,40.00,5,2,10,0.00
2013-3-18,49,40,30,38,35,30,100,82,53,0.00,40.00,5,3,13,0.00
2013-3-19,44,37,29,39,35,29,100,94,70,0.00,40.00,3,1,9,0.00
2013-3-20,47,43,37,46,41,33,100,94,76,0.00,40.00,6,2,17,0.00
2013-3-21,41,36,34,38,34,32,100,92,88,0.00,40.00,5,2,12,0.00
2013-3-22,46,36,28,34,31,28,100,85,53,0.00,40.00,5,1,12,0.00
2013-3-23,45,37,30,37,32,30,100,86,57,0.00,40.00,2,1,6,0.00
2013-3-24,46,40,33,39,36,32,100,86,57,0.00,40.00,3,1,9,0.00
2013-3-25,53,44,32,39,33,27,100,72,36,0.00,40.00,3,1,9,0.00
2013-3-26,55,44,32,44,39,32,100,85,54,0.00,40.00,2,0,6,0.00
2013-3-27,57,44,40,47,42,39,100,91,54,0.00,40.00,2,0,7,0.00
2013-3-28,56,47,32,47,42,32,100,85,57,0.00,40.00,3,0,8,0.00
2013-3-29,57,44,39,46,42,38,100,94,64,0.00,40.00,3,0,8,0.00
2013-3-30,63,47,32,45,31,-100,100,78,39,0.00,40.00,5,2,13,0.00
2013-3-31,68,51,32,42,37,32,100,65,26,0.00,40.00,3,1,10,0.00
2013-4-1,57,49,33,46,43,33,100,79,66,0.00,40.00,8,2,13,0.00
2013-4-2,53,48,45,44,43,41,96,81,68,0.00,40.00,3,2,9,0.00
2013-4-3,56,49,42,46,43,40,100,81,54,0.00,40.00,3,1,9,0.00
2013-4-4,51,48,43,48,46,42,96,94,89,0.00,40.00,5,1,17,0.00
2013-4-5,53,49,45,49,46,44,96,89,77,0.00,40.00,5,2,14,0.00
2013-4-6,53,48,42,46,42,37,100,81,54,0.00,40.00,3,2,15,0.00
2013-4-7,49,45,41,44,42,40,100,90,70,0.00,40.00,3,1,9,0.00
2013-4-8,55,49,42,42,30,-100,92,67,59,0.00,40.00,7,3,14,0.00
2013-4-9,48,44,38,45,42,38,100,94,82,0.00,40.00,2,0,5,0.00
2013-4-10,51,48,44,48,44,41,96,86,68,0.00,40.00,7,3,29,0.00
2013-4-11,50,42,33,42,31,-100,100,75,51,0.00,40.00,3,2,9,0.00
2013-4-12,44,32,30,41,19,-100,100,84,89,0.00,40.00,6,1,12,0.00
2013-4-13,48,42,37,42,38,35,96,89,73,0.00,40.00,3,2,10,0.00
2013-4-15,55,44,32,41,38,32,100,80,46,0.00,40.00,3,1,9,0.00
2013-4-16,59,44,29,40,29,18,100,67,20,0.00,40.00,5,1,12,0.00
2013-4-17,55,44,32,40,37,32,100,76,50,0.00,40.00,7,3,14,0.00
2013-4-18,49,45,42,47,43,39,100,93,85,0.00,40.00,3,1,12,0.00
2013-4-19,53,50,47,50,47,45,96,90,79,0.00,40.00,3,2,12,0.00
2013-4-20,51,47,44,46,43,41,96,87,73,0.00,40.00,5,2,14,0.00
2013-4-21,53,45,38,45,41,38,100,87,56,0.00,40.00,7,3,14,0.00
2013-4-22,60,40,31,41,30,5,100,81,12,0.00,40.00,5,1,12,0.00
2013-4-23,62,48,29,41,34,29,100,63,29,0.00,40.00,3,2,10,0.00
2013-4-24,67,55,30,46,33,25,100,52,21,0.00,40.00,9,3,15,0.00
2013-4-25,63,52,35,46,41,35,100,71,44,0.00,40.00,6,2,10,0.00
2013-4-26,58,48,32,45,42,32,100,80,57,0.00,40.00,7,3,12,0.00
2013-4-27,53,50,46,49,46,41,96,86,71,0.00,40.00,3,2,10,0.00
2013-4-28,54,48,43,45,43,39,100,84,56,0.00,40.00,5,2,12,0.00
2013-4-29,52,46,39,43,36,31,96,69,47,0.00,40.00,6,3,12,0.00
2013-4-30,53,44,32,38,33,28,100,68,39,0.00,40.00,6,3,10,0.00
2013-5-1,58,44,28,39,32,28,100,69,31,0.00,40.00,5,1,9,0.00
2013-5-2,60,49,30,43,33,25,100,59,27,0.00,40.00,5,1,7,0.00
2013-5-3,67,57,31,47,40,31,100,59,34,0.00,40.00,5,3,12,0.00
2013-5-4,76,63,35,50,35,24,100,45,14,0.00,40.00,6,3,14,0.00
2013-5-5,80,62,38,53,42,38,100,58,23,0.00,40.00,5,2,10,0.00
2013-5-6,77,57,41,49,46,40,96,71,30,0.00,40.00,6,1,10,0.00
2013-5-7,65,54,46,51,48,46,100,82,60,0.00,40.00,7,3,13,0.00
2013-5-8,60,51,43,49,46,41,100,84,64,0.00,40.00,7,-81,12,0.00
2013-5-9,59,50,41,48,45,41,100,84,64,0.00,40.00,7,2,13,0.00
2013-5-10,66,51,38,51,45,37,100,82,58,0.00,40.00,3,1,7,0.00
2013-5-11,68,57,48,59,51,46,96,82,50,0.00,40.00,3,1,7,0.00
2013-5-12,63,58,55,58,54,52,93,86,67,0.00,40.00,6,2,18,0.00
2013-5-13,55,47,46,53,35,-100,96,80,79,0.00,40.00,6,2,17,0.00
2013-5-14,57,50,45,47,45,43,96,84,59,0.00,40.00,3,1,7,0.00
2013-5-15,58,51,47,50,48,45,100,87,66,0.00,40.00,3,1,5,0.00
2013-5-16,62,52,32,55,37,-100,100,88,64,0.00,40.00,3,1,12,0.00
2013-5-17,58,55,52,52,49,47,92,81,71,0.00,40.00,3,2,12,0.00
2013-5-18,56,48,49,51,39,-100,96,83,77,0.00,40.00,5,1,7,0.00
2013-5-19,63,45,32,49,26,-100,100,67,51,0.00,40.00,6,2,14,0.00
2013-5-20,56,48,32,46,43,32,100,85,68,0.00,40.00,5,2,12,0.00
2013-5-21,52,49,45,47,44,43,96,85,74,0.00,40.00,7,2,14,0.00
2013-5-22,59,50,45,48,44,42,96,81,57,0.00,40.00,3,2,7,0.00
2013-5-23,56,49,45,47,45,41,100,87,57,0.00,40.00,5,1,10,0.00
2013-5-24,58,50,32,49,44,32,100,81,59,0.00,40.00,5,1,13,0.00
2013-5-25,55,50,44,50,47,44,100,90,74,0.00,40.00,2,0,6,0.00
2013-5-26,54,51,47,52,49,46,100,93,86,0.00,40.00,2,0,5,0.00
2013-5-27,55,51,47,53,50,47,100,95,86,0.00,40.00,3,1,7,0.00
2013-5-28,56,52,49,50,48,46,92,86,74,0.00,40.00,6,2,17,0.00
2013-5-29,54,51,48,49,48,47,96,90,77,0.00,40.00,2,1,9,0.00
2013-5-30,54,51,47,49,47,44,96,86,68,0.00,40.00,3,1,13,0.00
2013-5-31,57,50,45,49,47,44,100,87,66,0.00,40.00,6,2,10,0.00
2013-6-1,61,54,47,52,49,46,100,84,64,0.00,40.00,2,0,6,0.00
2013-6-2,67,58,46,52,49,45,96,74,51,0.00,40.00,5,2,8,0.00
2013-6-3,66,54,42,50,47,41,96,79,56,0.00,40.00,6,3,13,0.00
2013-6-4,72,56,39,53,46,38,100,73,32,0.00,40.00,5,1,9,0.00
2013-6-5,68,60,49,55,53,48,96,77,62,0.00,40.00,9,3,15,0.00
2013-6-6,70,60,41,53,46,39,96,64,32,0.00,40.00,6,3,13,0.00
2013-6-7,61,50,32,52,44,32,100,81,66,0.00,40.00,2,1,6,0.00
2013-6-8,60,45,44,49,27,-100,96,70,62,0.00,40.00,6,2,12,0.00
2013-6-9,60,51,42,48,44,41,96,80,55,0.00,40.00,5,1,9,0.00
2013-6-10,65,51,39,50,44,38,96,78,52,0.00,40.00,5,2,9,0.00
2013-6-11,59,53,47,49,47,44,92,80,57,0.00,40.00,3,2,12,0.00
2013-6-12,55,52,49,51,49,47,96,88,77,0.00,40.00,2,1,6,0.00
2013-6-13,65,46,46,50,29,-100,100,72,58,0.00,40.00,5,1,10,0.00
2013-6-14,58,54,51,51,49,47,92,82,71,0.00,40.00,6,2,9,0.00
2013-6-15,69,60,44,55,50,43,96,72,47,0.00,40.00,3,1,7,0.00
2013-6-16,68,59,46,53,50,45,96,74,56,0.00,40.00,7,2,13,0.00
2013-6-17,65,58,49,58,52,47,96,79,62,0.00,40.00,3,1,9,0.00
2013-6-18,63,55,50,54,51,49,96,88,64,0.00,40.00,2,1,6,0.00
2013-6-19,65,56,46,51,49,46,100,80,60,0.00,40.00,3,2,7,0.00
2013-6-25,58,56,54,56,54,53,96,94,93,0.00,40.00,1,0,3,0.00
2013-6-26,60,58,57,57,56,56,96,92,89,0.00,40.00,1,0,5,0.00
2013-6-27,60,58,56,58,57,55,96,95,93,0.00,40.00,0,0,3,0.00
2013-6-28,59,59,59,58,58,58,96,96,96,0.00,40.00,0,0,1,0.00
2013-6-29,72,72,72,59,59,59,63,63,63,0.00,40.00,5,5,9,0.00
2013-6-30,81,69,61,61,60,58,96,76,48,0.00,40.00,2,1,7,0.00
2013-7-3,72,65,51,55,51,46,92,62,39,0.00,40.00,7,3,12,0.00
2013-7-4,71,68,63,51,50,49,62,53,48,0.00,40.00,3,2,9,0.00
2013-7-6,68,64,59,55,55,55,86,74,63,0.00,40.00,1,0,2,0.00
2013-7-8,73,62,51,57,53,49,92,74,57,0.00,40.00,3,2,6,0.00
2013-7-9,70,60,51,56,53,50,96,78,58,0.00,40.00,7,3,12,0.00
2013-7-10,66,62,53,49,48,46,86,61,50,0.00,40.00,5,3,9,0.00
2013-7-11,62,57,51,50,47,44,86,69,53,0.00,40.00,3,2,9,0.00
2013-7-12,68,59,47,51,48,45,92,68,46,0.00,40.00,5,2,9,0.00
2013-7-13,67,64,59,52,50,49,69,60,54,0.00,40.00,5,3,7,0.00
2013-7-15,-200,0,200,-100,-100,-100,0,0,100,0.00,40.00,5,5,10,0.00
2013-7-16,78,78,78,43,43,43,28,28,28,0.00,40.00,5,5,13,0.00
2013-7-17,65,62,58,55,53,52,80,72,65,0.00,40.00,3,2,9,0.00
2013-7-18,65,61,55,55,53,52,89,75,67,0.00,40.00,6,4,10,0.00
2013-7-19,67,67,67,56,56,56,67,67,67,0.00,40.00,6,6,10,0.00
2013-7-20,67,63,58,54,53,50,77,68,62,0.00,40.00,6,4,12,0.00
2013-7-21,64,58,53,55,53,50,89,82,72,0.00,40.00,3,2,6,0.00
2013-7-22,68,59,51,55,53,49,92,80,63,0.00,40.00,3,2,6,0.00
2013-7-23,74,61,50,56,53,49,96,77,53,0.00,40.00,2,1,6,0.00
2013-7-24,48,48,48,47,47,47,96,96,96,0.00,40.00,0,0,1,0.00
2013-7-25,71,71,71,55,55,55,56,56,56,0.00,40.00,6,6,10,0.00
2013-7-26,70,63,51,56,53,49,92,71,61,0.00,40.00,3,2,12,0.00
2013-7-27,65,65,65,51,51,51,60,60,60,0.00,40.00,3,3,7,0.00
2013-7-28,63,56,51,53,51,48,89,81,69,0.00,40.00,3,2,7,0.00
2013-7-29,62,54,49,53,50,47,96,86,72,0.00,40.00,3,1,7,0.00
2013-7-30,61,58,55,55,54,53,92,86,80,0.00,40.00,1,1,3,0.00
2013-7-31,63,57,54,54,52,51,92,86,72,0.00,40.00,3,2,6,0.00
2013-8-1,63,57,51,53,52,50,96,82,69,0.00,40.00,8,4,14,0.00
2013-8-2,63,59,58,55,53,52,80,79,75,0.00,40.00,5,3,15,0.00
2013-8-3,63,59,56,56,55,54,96,86,77,0.00,40.00,5,2,7,0.00
2013-8-4,71,60,50,57,54,49,96,83,61,0.00,40.00,5,2,7,0.00
2013-8-5,71,61,51,57,53,50,96,77,61,0.00,40.00,3,2,6,0.00
2013-8-6,67,53,46,56,50,46,100,90,67,0.00,40.00,3,1,6,0.00
2013-8-7,70,60,51,56,53,50,96,79,61,0.00,40.00,6,2,9,0.00
2013-8-8,71,61,52,56,54,51,96,78,56,0.00,40.00,7,3,12,0.00
2013-8-9,77,69,53,57,55,50,89,62,43,0.00,40.00,3,2,7,0.00
2013-8-10,70,62,51,56,54,50,96,76,61,0.00,40.00,3,2,8,0.00
2013-8-11,69,62,55,55,54,52,92,75,58,0.00,40.00,3,1,7,0.00
2013-8-20,59,56,53,52,51,50,89,83,77,0.00,40.00,1,0,3,0.00
2013-8-21,75,75,75,45,45,45,34,34,34,0.00,40.00,2,2,5,0.00
2013-8-22,80,74,68,58,54,49,70,52,33,0.00,40.00,3,2,7,0.00
2013-8-24,50,50,50,49,49,49,96,96,96,0.00,40.00,0,0,0,0.00
2013-8-25,43,42,42,42,42,42,100,98,96,0.00,40.00,0,0,1,0.00
2013-8-26,61,61,61,53,53,53,74,74,74,0.00,40.00,3,3,13,0.00
2013-8-27,58,58,58,55,55,55,89,89,89,0.00,40.00,1,1,2,0.00
2013-8-28,66,65,64,62,61,60,86,86,86,0.00,40.00,1,-499,3,0.00
2013-8-29,65,65,65,62,62,62,90,90,90,0.00,40.00,1,1,5,0.00
2013-8-30,66,65,64,59,58,58,83,79,75,0.00,40.00,1,0,3,0.00
2013-9-12,58,58,58,57,57,57,96,96,96,0.00,40.00,0,0,2,0.00
2013-9-13,67,64,59,59,59,58,96,84,75,0.00,40.00,5,2,9,0.00
2013-9-14,59,56,54,55,54,52,92,89,86,0.00,40.00,1,0,2,0.00
2013-9-15,60,60,60,59,59,59,96,96,96,0.00,40.00,1,1,5,0.00
2013-9-16,65,59,55,56,54,53,92,84,72,0.00,40.00,1,0,5,0.00
2013-9-17,53,53,53,52,52,52,96,96,96,0.00,40.00,0,0,2,0.00
2013-10-19,47,46,44,47,46,44,100,100,100,0.00,40.00,1,1,5,0.00
2013-10-20,49,46,43,46,45,43,100,96,89,0.00,40.00,3,-332,5,0.00
2013-10-21,44,42,41,44,42,41,100,100,100,0.00,40.00,1,0,2,0.00
2013-10-22,54,34,47,53,-1,-100,96,63,89,0.00,40.00,2,0,7,0.00
2013-10-24,51,49,47,48,47,46,96,92,89,0.00,40.00,0,0,0,0.00
2013-10-26,49,49,48,48,48,48,100,97,96,0.00,40.00,0,0,1,0.00
2013-10-27,50,47,43,47,45,42,96,91,89,0.00,40.00,2,1,9,0.00
2013-10-28,57,57,57,28,28,28,32,32,32,0.00,40.00,3,3,10,0.00
2013-10-29,57,57,57,37,37,37,47,47,47,0.00,40.00,1,1,5,0.00
2013-10-30,50,48,46,46,45,45,96,90,82,0.00,40.00,1,0,3,0.00
2013-10-31,51,50,48,50,49,48,100,98,96,0.00,40.00,5,2,10,0.00
2013-11-1,51,49,48,50,48,47,96,96,96,0.00,40.00,1,0,2,0.00
2013-11-2,48,48,48,48,48,47,100,98,96,0.00,40.00,2,1,9,0.00
2013-11-5,46,44,42,45,44,42,100,97,96,0.00,40.00,1,0,2,0.00
2013-11-7,46,46,46,46,46,46,100,100,100,0.00,40.00,2,2,7,0.00
2013-11-8,50,46,41,47,44,41,100,96,89,0.00,40.00,2,0,6,0.00
2013-11-9,-200,0,200,-100,-100,-100,0,0,100,0.00,40.00,0,0,0,0.00
2013-11-10,46,46,46,42,42,42,85,85,85,0.00,40.00,1,1,5,0.00
2013-11-26,40,40,40,39,39,39,96,96,96,0.00,40.00,0,0,1,0.00
2013-11-27,48,44,41,47,44,41,100,98,96,0.00,40.00,1,0,2,0.00
2013-11-28,46,45,44,45,44,43,100,97,96,0.00,40.00,0,0,1,0.00
2013-11-29,50,47,44,44,43,42,100,87,79,0.00,40.00,2,1,6,0.00
2013-11-30,48,31,46,47,-2,-100,100,65,96,0.00,40.00,6,2,16,0.00
2013-12-1,50,45,38,48,43,35,96,92,88,0.00,40.00,3,2,13,0.00
2013-12-2,39,35,30,37,34,30,100,97,92,0.00,40.00,1,0,6,0.00
2013-12-3,38,34,27,26,21,17,95,58,42,0.00,40.00,3,2,12,0.00
2013-12-4,34,27,21,28,23,20,100,88,61,0.00,40.00,1,0,5,0.00
2013-12-5,29,24,19,29,24,18,100,98,95,0.00,40.00,0,0,1,0.00
2013-12-6,29,28,27,28,21,17,95,76,65,0.00,40.00,5,3,14,0.00
2013-12-7,28,18,25,7,-29,-100,41,27,40,0.00,40.00,3,2,9,0.00
2013-12-8,35,29,22,24,23,21,95,79,63,0.00,40.00,3,1,7,0.00
2013-12-9,33,28,25,32,28,25,100,99,96,0.00,40.00,0,0,2,0.00
2013-12-10,35,33,32,35,33,32,100,100,100,0.00,40.00,0,0,0,0.00
2013-12-11,36,32,30,36,32,30,100,100,100,0.00,40.00,0,0,1,0.00
2013-12-15,48,48,48,46,46,46,92,92,92,0.00,40.00,2,2,6,0.00
2013-12-16,36,34,33,36,34,32,100,98,96,0.00,40.00,1,0,2,0.00
2013-12-17,46,46,45,44,43,42,92,90,89,0.00,40.00,2,1,6,0.00
2013-12-18,41,36,31,33,31,30,96,84,67,0.00,40.00,0,0,0,0.00
2013-12-19,31,31,31,31,31,31,100,100,100,0.00,40.00,0,0,0,0.00
2013-12-20,47,36,32,45,35,32,100,98,92,0.00,40.00,2,0,13,0.00
2013-12-21,-200,0,200,-100,-100,-100,0,0,100,0.00,40.00,0,0,1,0.00
2013-12-22,44,41,40,44,41,40,100,100,100,0.00,40.00,1,0,2,0.00
2013-12-23,47,44,42,45,43,41,96,94,92,0.00,40.00,3,2,15,0.00
2013-12-24,42,38,36,41,38,35,100,98,96,0.00,40.00,0,0,0,0.00
2013-12-25,32,31,30,32,31,30,100,100,100,0.00,40.00,0,0,0,0.00
2013-12-26,47,41,38,42,39,37,100,93,82,0.00,40.00,0,0,0,0.00
2013-12-27,47,46,44,45,44,42,92,92,92,0.00,40.00,1,0,6,0.00
2013-12-28,36,24,35,36,-10,-100,100,67,100,0.00,40.00,1,0,1,0.00
2013-12-29,45,40,34,41,39,34,100,95,85,0.00,40.00,0,0,3,0.00
2013-12-30,43,40,37,42,40,37,100,98,96,0.00,40.00,2,2,3,0.00
2013-12-31,47,47,47,44,44,44,89,89,89,0.00,40.00,0,0,3,0.00
2014-1-1,42,42,41,42,41,40,100,99,96,0.00,40.00,0,0,1,0.00
2014-1-2,48,44,41,46,43,40,100,94,85,0.00,40.00,6,2,18,0.00